createdAt,value
2023-05-26T00:00:15.648Z,100.00
2023-05-26T00:02:43.610Z,100.00
2023-05-26T00:05:11.547Z,100.00
2023-05-26T00:07:41.632Z,100.00
2023-05-26T00:10:11.436Z,100.00
2023-05-26T00:12:40.071Z,100.00
2023-05-26T00:15:08.977Z,100.00
2023-05-26T00:17:37.538Z,100.00
2023-05-26T00:20:08.747Z,100.00
2023-05-26T00:22:36.396Z,100.00
2023-05-26T00:25:04.613Z,100.00
2023-05-26T00:27:31.880Z,100.00
2023-05-26T00:29:59.390Z,100.00
2023-05-26T00:32:27.232Z,100.00
2023-05-26T00:34:54.545Z,100.00
2023-05-26T00:37:23.326Z,100.00
2023-05-26T00:39:50.631Z,100.00
2023-05-26T00:42:18.804Z,100.00
2023-05-26T00:44:46.181Z,100.00
2023-05-26T00:47:13.580Z,100.00
2023-05-26T00:49:41.082Z,100.00
2023-05-26T00:52:08.741Z,100.00
2023-05-26T00:54:36.582Z,100.00
2023-05-26T00:57:05.125Z,100.00
2023-05-26T00:59:33.543Z,100.00
2023-05-26T01:02:02.370Z,100.00
2023-05-26T01:04:30.246Z,100.00
2023-05-26T01:06:57.780Z,100.00
2023-05-26T01:09:25.480Z,100.00
2023-05-26T01:12:08.778Z,100.00
2023-05-26T01:15:02.869Z,100.00
2023-05-26T01:18:11.891Z,100.00
2023-05-26T01:21:06.875Z,100.00
2023-05-26T01:24:22.081Z,100.00
2023-05-26T01:27:09.657Z,100.00
2023-05-26T01:29:37.588Z,100.00
2023-05-26T01:32:17.004Z,100.00
2023-05-26T01:34:44.383Z,100.00
2023-05-26T01:37:12.070Z,100.00
2023-05-26T01:39:39.501Z,100.00
2023-05-26T01:42:31.387Z,100.00
2023-05-26T01:45:17.892Z,100.00
2023-05-26T01:47:56.267Z,100.00
2023-05-26T01:50:58.511Z,100.00
2023-05-26T01:53:32.004Z,100.00
2023-05-26T01:56:02.283Z,100.00
2023-05-26T01:58:31.838Z,100.00
2023-05-26T02:00:59.604Z,100.00
2023-05-26T02:03:28.266Z,100.00
2023-05-26T02:05:56.043Z,100.00
2023-05-26T02:08:23.578Z,100.00
2023-05-26T02:10:51.102Z,100.00
2023-05-26T02:13:18.555Z,100.00
2023-05-26T02:15:46.048Z,100.00
2023-05-26T02:18:13.852Z,100.00
2023-05-26T02:20:41.799Z,100.00
2023-05-26T02:23:09.357Z,100.00
2023-05-26T02:25:38.090Z,100.00
2023-05-26T02:28:05.815Z,100.00
2023-05-26T02:30:34.552Z,100.00
2023-05-26T02:33:03.402Z,100.00
2023-05-26T02:35:30.817Z,100.00
2023-05-26T02:37:58.187Z,100.00
2023-05-26T02:40:26.554Z,100.00
2023-05-26T02:42:53.830Z,100.00
2023-05-26T02:45:21.404Z,100.00
2023-05-26T02:47:48.767Z,100.00
2023-05-26T02:50:16.423Z,100.00
2023-05-26T02:52:43.794Z,100.00
2023-05-26T02:55:12.641Z,100.00
2023-05-26T02:57:40.330Z,100.00
2023-05-26T03:00:12.233Z,100.00
2023-05-26T03:02:40.294Z,100.00
2023-05-26T03:05:08.553Z,100.00
2023-05-26T03:07:35.957Z,100.00
2023-05-26T03:10:05.656Z,100.00
2023-05-26T03:12:33.142Z,100.00
2023-05-26T03:15:04.858Z,100.00
2023-05-26T03:17:33.120Z,100.00
2023-05-26T03:20:00.645Z,100.00
2023-05-26T03:22:41.265Z,100.00
2023-05-26T03:25:16.316Z,100.00
2023-05-26T03:27:48.501Z,100.00
2023-05-26T03:30:16.064Z,100.00
2023-05-26T03:32:45.604Z,100.00
2023-05-26T03:35:13.779Z,100.00
2023-05-26T03:37:41.223Z,100.00
2023-05-26T03:40:11.434Z,100.00
2023-05-26T03:42:39.603Z,100.00
2023-05-26T03:45:08.028Z,100.00
2023-05-26T03:47:35.987Z,100.00
2023-05-26T03:50:06.758Z,100.00
2023-05-26T03:52:37.715Z,100.00
2023-05-26T03:55:10.624Z,100.00
2023-05-26T03:57:41.406Z,100.00
2023-05-26T04:00:13.793Z,100.00
2023-05-26T04:02:52.815Z,100.00
2023-05-26T04:05:20.571Z,100.00
2023-05-26T04:07:48.312Z,100.00
2023-05-26T04:10:15.975Z,100.00
2023-05-26T04:12:44.253Z,100.00
2023-05-26T04:15:12.017Z,100.00
2023-05-26T04:17:39.771Z,100.00
2023-05-26T04:20:12.200Z,100.00
2023-05-26T04:22:41.091Z,100.00
2023-05-26T04:25:09.425Z,100.00
2023-05-26T04:27:58.617Z,100.00
2023-05-26T04:30:44.092Z,100.00
2023-05-26T04:33:14.119Z,100.00
2023-05-26T04:35:51.611Z,100.00
2023-05-26T04:38:21.643Z,100.00
2023-05-26T04:40:49.914Z,100.00
2023-05-26T04:43:17.435Z,100.00
2023-05-26T04:45:45.303Z,100.00
2023-05-26T04:48:13.612Z,100.00
2023-05-26T04:50:42.576Z,100.00
2023-05-26T04:53:10.750Z,100.00
2023-05-26T04:55:38.141Z,100.00
2023-05-26T04:58:09.089Z,100.00
2023-05-26T05:00:37.515Z,100.00
2023-05-26T05:03:40.754Z,100.00
2023-05-26T05:06:13.020Z,100.00
2023-05-26T05:08:40.619Z,100.00
2023-05-26T05:11:08.788Z,100.00
2023-05-26T05:13:42.073Z,100.00
2023-05-26T05:16:09.660Z,100.00
2023-05-26T05:18:38.197Z,100.00
2023-05-26T05:21:06.134Z,100.00
2023-05-26T05:23:35.494Z,100.00
2023-05-26T05:26:04.734Z,100.00
2023-05-26T05:28:34.025Z,100.00
2023-05-26T05:31:09.283Z,100.00
2023-05-26T05:33:44.064Z,100.00
2023-05-26T05:36:12.463Z,100.00
2023-05-26T05:38:40.556Z,100.00
2023-05-26T05:41:08.019Z,100.00
2023-05-26T05:43:36.314Z,100.00
2023-05-26T05:46:05.620Z,100.00
2023-05-26T05:48:53.338Z,100.00
2023-05-26T05:51:34.364Z,100.00
2023-05-26T05:54:05.853Z,100.00
2023-05-26T05:56:35.049Z,100.00
2023-05-26T05:59:03.036Z,100.00
2023-05-26T06:01:31.505Z,100.00
2023-05-26T06:04:00.183Z,100.00
2023-05-26T06:06:27.569Z,100.00
2023-05-26T06:08:54.902Z,100.00
2023-05-26T06:11:22.455Z,100.00
2023-05-26T06:13:49.884Z,100.00
2023-05-26T06:16:17.283Z,100.00
2023-05-26T06:18:44.839Z,100.00
2023-05-26T06:21:13.472Z,100.00
2023-05-26T06:23:42.427Z,100.00
2023-05-26T06:26:10.722Z,100.00
2023-05-26T06:28:37.992Z,100.00
2023-05-26T06:31:06.642Z,100.00
2023-05-26T06:33:40.763Z,100.00
2023-05-26T06:36:09.256Z,100.00
2023-05-26T06:38:37.741Z,100.00
2023-05-26T06:41:23.303Z,100.00
2023-05-26T06:43:50.723Z,100.00
2023-05-26T06:46:18.164Z,100.00
2023-05-26T06:48:46.017Z,100.00
2023-05-26T06:51:24.027Z,100.00
2023-05-26T06:53:51.431Z,100.00
2023-05-26T06:56:19.598Z,100.00
2023-05-26T06:58:47.133Z,100.00
2023-05-26T07:01:14.603Z,100.00
2023-05-26T07:03:42.066Z,100.00
2023-05-26T07:06:09.544Z,100.00
2023-05-26T07:08:39.788Z,100.00
2023-05-26T07:11:21.041Z,100.00
2023-05-26T07:13:55.801Z,100.00
2023-05-26T07:16:23.511Z,100.00
2023-05-26T07:18:51.619Z,100.00
2023-05-26T07:21:22.945Z,97.60
2023-05-26T07:23:56.165Z,98.09
2023-05-26T07:26:25.415Z,98.65
2023-05-26T07:28:53.590Z,94.73
2023-05-26T07:31:23.226Z,93.43
2023-05-26T07:33:55.877Z,95.15
2023-05-26T07:36:23.376Z,94.03
2023-05-26T07:38:51.025Z,94.93
2023-05-26T07:41:18.692Z,92.60
2023-05-26T07:43:46.218Z,92.70
2023-05-26T07:46:15.612Z,91.56
2023-05-26T07:48:42.963Z,92.74
2023-05-26T07:51:10.552Z,94.19
2023-05-26T07:53:38.871Z,93.07
2023-05-26T07:56:08.420Z,92.69
2023-05-26T07:58:37.042Z,93.54
2023-05-26T08:01:08.633Z,90.18
2023-05-26T08:03:37.354Z,87.68
2023-05-26T08:06:17.582Z,87.13
2023-05-26T08:08:52.071Z,82.88
2023-05-26T08:11:19.483Z,82.05
2023-05-26T08:13:46.828Z,82.91
2023-05-26T08:16:17.353Z,83.96
2023-05-26T08:18:46.018Z,77.37
2023-05-26T08:21:14.858Z,76.70
2023-05-26T08:23:42.784Z,73.37
2023-05-26T08:26:10.500Z,71.33
2023-05-26T08:28:37.859Z,70.52
2023-05-26T08:31:05.511Z,68.63
2023-05-26T08:33:32.987Z,66.63
2023-05-26T08:36:00.410Z,64.20
2023-05-26T08:38:28.403Z,64.83
2023-05-26T08:41:01.836Z,62.44
2023-05-26T08:43:53.432Z,63.22
2023-05-26T08:46:23.988Z,65.48
2023-05-26T08:48:54.280Z,64.35
2023-05-26T08:51:21.657Z,63.10
2023-05-26T08:53:51.161Z,63.52
2023-05-26T08:56:19.487Z,60.11
2023-05-26T08:58:50.676Z,56.54
2023-05-26T09:01:20.148Z,56.95
2023-05-26T09:03:47.563Z,56.69
2023-05-26T09:06:16.645Z,58.15
2023-05-26T09:08:43.949Z,56.67
2023-05-26T09:11:26.847Z,55.79
2023-05-26T09:13:57.344Z,56.51
2023-05-26T09:16:28.948Z,54.10
2023-05-26T09:18:59.735Z,52.87
2023-05-26T09:21:28.873Z,51.00
2023-05-26T09:24:01.747Z,50.47
2023-05-26T09:26:36.281Z,48.38
2023-05-26T09:29:06.618Z,50.30
2023-05-26T09:31:50.641Z,48.89
2023-05-26T09:34:22.298Z,47.80
2023-05-26T09:36:54.870Z,48.66
2023-05-26T09:39:33.883Z,47.80
2023-05-26T09:42:07.871Z,49.21
2023-05-26T09:44:37.191Z,49.18
2023-05-26T09:47:08.675Z,49.05
2023-05-26T09:49:41.410Z,49.05
2023-05-26T09:52:13.108Z,49.01
2023-05-26T09:54:42.977Z,47.54
2023-05-26T09:57:15.015Z,45.40
2023-05-26T09:59:51.167Z,46.36
2023-05-26T10:02:25.107Z,45.32
2023-05-26T10:04:54.628Z,46.06
2023-05-26T10:07:23.368Z,46.76
2023-05-26T10:10:04.833Z,45.58
2023-05-26T10:12:35.609Z,45.12
2023-05-26T10:15:05.784Z,43.73
2023-05-26T10:17:33.790Z,44.41
2023-05-26T10:20:03.690Z,42.56
2023-05-26T10:23:13.989Z,42.42
2023-05-26T10:26:26.272Z,42.66
2023-05-26T10:29:11.279Z,42.93
2023-05-26T10:31:41.670Z,43.41
2023-05-26T10:34:46.207Z,39.85
2023-05-26T10:37:18.976Z,40.24
2023-05-26T10:39:46.399Z,39.88
2023-05-26T10:42:32.597Z,39.35
2023-05-26T10:45:19.702Z,40.66
2023-05-26T10:47:50.084Z,41.78
2023-05-26T10:50:17.901Z,38.70
2023-05-26T10:52:52.487Z,38.72
2023-05-26T10:55:54.510Z,36.46
2023-05-26T10:58:32.984Z,38.08
2023-05-26T11:01:15.784Z,38.76
2023-05-26T11:03:50.150Z,38.05
2023-05-26T11:06:36.809Z,37.96
2023-05-26T11:09:12.044Z,39.06
2023-05-26T11:12:13.503Z,38.58
2023-05-26T11:14:41.297Z,36.91
2023-05-26T11:17:08.838Z,37.71
2023-05-26T11:19:39.623Z,36.90
2023-05-26T11:22:14.024Z,35.43
2023-05-26T11:24:41.591Z,35.45
2023-05-26T11:27:08.915Z,35.14
2023-05-26T11:29:37.540Z,35.76
2023-05-26T11:32:05.849Z,35.08
2023-05-26T11:34:35.544Z,35.39
2023-05-26T11:37:03.079Z,35.52
2023-05-26T11:39:36.948Z,36.37
2023-05-26T11:42:11.675Z,36.61
2023-05-26T11:44:40.510Z,35.84
2023-05-26T11:47:08.507Z,35.77
2023-05-26T11:49:35.972Z,35.75
2023-05-26T11:52:03.866Z,34.77
2023-05-26T11:54:34.199Z,33.69
2023-05-26T11:57:01.703Z,32.46
2023-05-26T11:59:31.272Z,33.71
2023-05-26T12:02:04.251Z,34.56
2023-05-26T12:04:34.958Z,35.14
2023-05-26T12:07:02.951Z,33.82
2023-05-26T12:09:30.673Z,33.90
2023-05-26T12:11:58.865Z,34.76
2023-05-26T12:14:28.399Z,33.88
2023-05-26T12:16:56.991Z,34.55
2023-05-26T12:19:26.372Z,34.27
2023-05-26T12:21:58.676Z,33.14
2023-05-26T12:24:38.765Z,33.77
2023-05-26T12:27:08.101Z,34.62
2023-05-26T12:29:45.453Z,34.83
2023-05-26T12:32:13.355Z,36.48
2023-05-26T12:34:42.945Z,37.06
2023-05-26T12:37:11.331Z,36.56
2023-05-26T12:39:38.844Z,36.11
2023-05-26T12:42:08.230Z,36.64
2023-05-26T12:44:35.676Z,35.94
2023-05-26T12:47:03.177Z,35.13
2023-05-26T12:49:30.555Z,35.44
2023-05-26T12:51:57.828Z,35.38
2023-05-26T12:54:25.198Z,36.52
2023-05-26T12:56:54.118Z,35.06
2023-05-26T12:59:24.241Z,36.11
2023-05-26T13:01:51.703Z,36.33
2023-05-26T13:04:19.820Z,34.73
2023-05-26T13:06:56.454Z,34.72
2023-05-26T13:09:25.983Z,32.92
2023-05-26T13:11:54.381Z,34.34
2023-05-26T13:14:21.961Z,33.82
2023-05-26T13:16:49.475Z,34.30
2023-05-26T13:19:17.912Z,32.92
2023-05-26T13:21:47.851Z,31.00
2023-05-26T13:24:16.037Z,32.40
2023-05-26T13:26:45.061Z,33.06
2023-05-26T13:29:13.682Z,33.02
2023-05-26T13:31:42.724Z,34.20
2023-05-26T13:34:10.546Z,33.84
2023-05-26T13:36:41.393Z,33.40
2023-05-26T13:39:08.905Z,33.13
2023-05-26T13:41:37.246Z,33.56
2023-05-26T13:44:05.010Z,33.45
2023-05-26T13:46:32.389Z,32.92
2023-05-26T13:49:01.052Z,30.63
2023-05-26T13:51:29.422Z,30.68
2023-05-26T13:53:58.275Z,30.24
2023-05-26T13:56:27.431Z,29.78
2023-05-26T13:58:55.653Z,30.52
2023-05-26T14:03:56.850Z,29.71
2023-05-26T14:06:26.132Z,30.71
2023-05-26T14:08:54.556Z,29.43
2023-05-26T14:11:23.593Z,29.63
2023-05-26T14:13:52.569Z,30.14
2023-05-26T14:16:20.980Z,30.63
2023-05-26T14:19:04.368Z,30.75
2023-05-26T14:22:00.534Z,30.25
2023-05-26T14:24:24.873Z,29.47
2023-05-26T14:26:52.286Z,29.78
2023-05-26T14:29:22.080Z,28.96
2023-05-26T14:31:53.838Z,29.65
2023-05-26T14:34:21.624Z,29.04
2023-05-26T14:36:48.971Z,29.17
2023-05-26T14:39:16.538Z,29.42
2023-05-26T14:41:44.689Z,28.65
2023-05-26T14:44:12.137Z,29.11
2023-05-26T14:46:41.163Z,30.13
2023-05-26T14:49:12.021Z,30.47
2023-05-26T14:51:39.463Z,30.38
2023-05-26T14:54:07.435Z,30.23
2023-05-26T14:56:35.154Z,30.93
2023-05-26T14:59:03.359Z,31.65
2023-05-26T15:01:31.031Z,30.64
2023-05-26T15:04:13.577Z,30.37
2023-05-26T15:06:43.069Z,30.37
2023-05-26T15:09:10.419Z,29.63
2023-05-26T15:11:37.794Z,30.03
2023-05-26T15:14:06.917Z,30.28
2023-05-26T15:16:37.639Z,30.64
2023-05-26T15:19:05.721Z,30.39
2023-05-26T15:21:38.853Z,31.28
2023-05-26T15:24:08.847Z,31.52
2023-05-26T15:26:36.842Z,30.59
2023-05-26T15:29:04.336Z,30.38
2023-05-26T15:31:33.383Z,30.27
2023-05-26T15:34:00.805Z,30.59
2023-05-26T15:36:28.547Z,30.88
2023-05-26T15:38:58.025Z,31.19
2023-05-26T15:41:30.022Z,31.03
2023-05-26T15:44:04.101Z,30.75
2023-05-26T15:46:31.643Z,30.61
2023-05-26T15:48:59.102Z,30.58
2023-05-26T15:51:26.450Z,31.59
2023-05-26T15:53:53.824Z,33.35
2023-05-26T15:56:21.367Z,34.22
2023-05-26T15:58:48.849Z,34.15
2023-05-26T16:01:19.055Z,34.81
2023-05-26T16:03:47.218Z,35.23
2023-05-26T16:06:15.214Z,34.92
2023-05-26T16:08:43.158Z,35.01
2023-05-26T16:11:10.602Z,36.26
2023-05-26T16:13:37.939Z,35.86
2023-05-26T16:16:05.802Z,36.27
2023-05-26T16:18:33.399Z,36.74
2023-05-26T16:21:01.052Z,37.36
2023-05-26T16:23:28.784Z,37.01
2023-05-26T16:25:56.302Z,37.32
2023-05-26T16:28:24.262Z,37.78
2023-05-26T16:30:53.648Z,37.92
2023-05-26T16:33:21.846Z,38.15
2023-05-26T16:35:54.294Z,38.55
2023-05-26T16:38:28.645Z,38.46
2023-05-26T16:40:58.509Z,38.24
2023-05-26T16:43:46.663Z,37.91
2023-05-26T16:46:13.063Z,38.66
2023-05-26T16:48:40.338Z,38.34
2023-05-26T16:51:07.584Z,38.35
2023-05-26T16:53:35.084Z,38.28
2023-05-26T16:56:02.405Z,38.69
2023-05-26T16:58:29.960Z,39.14
2023-05-26T17:00:57.391Z,38.84
2023-05-26T17:03:27.994Z,39.19
2023-05-26T17:05:55.840Z,39.40
2023-05-26T17:08:23.576Z,39.18
2023-05-26T17:10:51.631Z,39.36
2023-05-26T17:13:18.991Z,40.40
2023-05-26T17:15:46.345Z,41.01
2023-05-26T17:18:14.667Z,40.46
2023-05-26T17:20:44.763Z,40.91
2023-05-26T17:23:13.841Z,41.69
2023-05-26T17:25:41.180Z,41.87
2023-05-26T17:28:10.628Z,42.48
2023-05-26T17:30:38.451Z,43.18
2023-05-26T17:33:06.011Z,44.04
2023-05-26T17:35:35.453Z,44.54
2023-05-26T17:38:03.677Z,44.49
2023-05-26T17:40:31.381Z,45.75
2023-05-26T17:42:58.636Z,45.94
2023-05-26T17:45:29.347Z,46.19
2023-05-26T17:47:56.688Z,46.38
2023-05-26T17:50:24.198Z,47.27
2023-05-26T17:52:51.646Z,47.05
2023-05-26T17:55:24.492Z,47.76
2023-05-26T17:57:52.105Z,47.35
2023-05-26T18:00:20.244Z,46.75
2023-05-26T18:02:48.994Z,47.03
2023-05-26T18:05:19.049Z,47.26
2023-05-26T18:07:51.376Z,46.67
2023-05-26T18:10:18.855Z,46.86
2023-05-26T18:12:46.315Z,46.62
2023-05-26T18:15:15.085Z,47.63
2023-05-26T18:17:42.604Z,47.27
2023-05-26T18:20:11.449Z,48.29
2023-05-26T18:22:40.494Z,48.01
2023-05-26T18:25:11.261Z,48.53
2023-05-26T18:27:39.248Z,49.35
2023-05-26T18:30:07.779Z,49.92
2023-05-26T18:32:35.219Z,50.76
2023-05-26T18:35:02.573Z,50.93
2023-05-26T18:37:31.291Z,51.61
2023-05-26T18:40:01.553Z,52.18
2023-05-26T18:42:29.210Z,52.37
2023-05-26T18:44:58.187Z,51.83
2023-05-26T18:47:26.655Z,52.44
2023-05-26T18:49:55.685Z,51.92
2023-05-26T18:52:23.342Z,52.78
2023-05-26T18:54:51.407Z,52.90
2023-05-26T18:57:19.138Z,53.99
2023-05-26T18:59:46.944Z,54.27
2023-05-26T19:02:14.526Z,54.47
2023-05-26T19:04:42.169Z,54.84
2023-05-26T19:07:10.821Z,55.44
2023-05-26T19:09:38.235Z,56.75
2023-05-26T19:12:05.883Z,57.18
2023-05-26T19:14:33.377Z,57.35
2023-05-26T19:17:00.748Z,58.85
2023-05-26T19:19:28.369Z,59.48
2023-05-26T19:21:56.851Z,59.80
2023-05-26T19:24:24.354Z,60.64
2023-05-26T19:26:51.772Z,60.91
2023-05-26T19:29:19.116Z,63.14
2023-05-26T19:31:46.509Z,63.98
2023-05-26T19:34:13.872Z,66.11
2023-05-26T19:36:41.965Z,65.75
2023-05-26T19:39:09.432Z,67.62
2023-05-26T19:41:37.222Z,67.99
2023-05-26T19:44:04.585Z,67.90
2023-05-26T19:46:32.822Z,68.28
2023-05-26T19:49:00.567Z,68.50
2023-05-26T19:51:27.944Z,70.88
2023-05-26T19:53:55.276Z,71.52
2023-05-26T19:56:23.516Z,71.63
2023-05-26T19:58:50.813Z,73.04
2023-05-26T20:01:20.687Z,73.65
2023-05-26T20:03:48.091Z,73.40
2023-05-26T20:06:15.749Z,74.04
2023-05-26T20:08:43.003Z,74.75
2023-05-26T20:11:10.378Z,75.13
2023-05-26T20:13:37.794Z,74.99
2023-05-26T20:16:06.961Z,76.43
2023-05-26T20:18:35.524Z,76.30
2023-05-26T20:21:03.028Z,75.59
2023-05-26T20:23:30.413Z,76.75
2023-05-26T20:25:57.780Z,76.99
2023-05-26T20:28:25.232Z,77.37
2023-05-26T20:30:52.517Z,77.40
2023-05-26T20:33:19.895Z,77.05
2023-05-26T20:35:47.450Z,78.39
2023-05-26T20:38:14.870Z,78.70
2023-05-26T20:40:42.365Z,79.29
2023-05-26T20:43:09.739Z,78.54
2023-05-26T20:45:38.634Z,79.64
2023-05-26T20:48:05.956Z,79.88
2023-05-26T20:50:33.361Z,80.50
2023-05-26T20:53:02.270Z,81.43
2023-05-26T20:55:35.143Z,82.86
2023-05-26T20:58:02.441Z,84.22
2023-05-26T21:00:29.902Z,82.86
2023-05-26T21:02:57.596Z,83.53
2023-05-26T21:05:27.407Z,83.32
2023-05-26T21:07:54.852Z,85.81
2023-05-26T21:10:22.336Z,84.63
2023-05-26T21:12:49.612Z,85.05
2023-05-26T21:15:17.235Z,86.06
2023-05-26T21:17:44.639Z,87.86
2023-05-26T21:20:12.053Z,86.55
2023-05-26T21:22:39.402Z,88.06
2023-05-26T21:25:08.996Z,88.56
2023-05-26T21:27:36.405Z,87.13
2023-05-26T21:30:05.556Z,89.24
2023-05-26T21:32:32.923Z,87.88
2023-05-26T21:35:00.436Z,88.59
2023-05-26T21:37:27.777Z,89.23
2023-05-26T21:39:55.129Z,89.62
2023-05-26T21:42:23.396Z,89.13
2023-05-26T21:44:51.769Z,90.25
2023-05-26T21:47:20.688Z,90.67
2023-05-26T21:49:48.479Z,90.30
2023-05-26T21:52:15.923Z,89.31
2023-05-26T21:54:43.234Z,90.91
2023-05-26T21:57:10.788Z,90.23
2023-05-26T21:59:38.296Z,91.47
2023-05-26T22:02:06.257Z,91.86
2023-05-26T22:04:33.872Z,91.53
2023-05-26T22:07:01.178Z,92.41
2023-05-26T22:09:28.577Z,92.10
2023-05-26T22:11:56.028Z,93.48
2023-05-26T22:14:26.177Z,93.49
2023-05-26T22:16:54.750Z,93.15
2023-05-26T22:19:22.230Z,94.27
2023-05-26T22:21:49.544Z,95.39
2023-05-26T22:24:16.918Z,93.70
2023-05-26T22:26:44.998Z,94.48
2023-05-26T22:29:12.541Z,94.61
2023-05-26T22:31:39.878Z,94.18
2023-05-26T22:34:07.178Z,95.04
2023-05-26T22:36:34.439Z,94.79
2023-05-26T22:39:06.085Z,96.57
2023-05-26T22:41:34.283Z,95.56
2023-05-26T22:44:01.593Z,95.93
2023-05-26T22:46:30.226Z,95.79
2023-05-26T22:48:57.617Z,95.71
2023-05-26T22:51:25.176Z,96.25
2023-05-26T22:53:52.459Z,97.42
2023-05-26T22:56:20.121Z,96.82
2023-05-26T22:58:48.185Z,97.16
2023-05-26T23:01:15.572Z,96.27
2023-05-26T23:03:43.087Z,98.40
2023-05-26T23:06:10.656Z,97.13
2023-05-26T23:08:38.841Z,97.31
2023-05-26T23:11:10.110Z,97.45
2023-05-26T23:13:38.262Z,98.00
2023-05-26T23:16:06.795Z,98.65
2023-05-26T23:18:35.164Z,98.41
2023-05-26T23:21:03.093Z,97.69
2023-05-26T23:23:30.469Z,97.69
2023-05-26T23:25:58.443Z,98.28
2023-05-26T23:28:25.874Z,98.17
2023-05-26T23:30:53.310Z,98.07
2023-05-26T23:33:20.615Z,98.61
2023-05-26T23:35:48.258Z,98.61
2023-05-26T23:38:16.230Z,99.16
2023-05-26T23:40:43.860Z,99.19
2023-05-26T23:43:12.141Z,99.72
2023-05-26T23:45:39.862Z,99.35
2023-05-26T23:48:07.535Z,98.99
2023-05-26T23:50:34.889Z,99.10
2023-05-26T23:53:02.275Z,98.64
2023-05-26T23:55:29.588Z,100.00
2023-05-26T23:57:57.013Z,99.49
